N19912 RJKA-RJX8

Flight info

Callsign N19912
Flight time N/A
Altitude 7000
Route DIRECT
Aircraft DC3/M-SDF/A

Departure

Time 2026-05-05 01:47
Airport Amami Airport (RJKA)

Arrival

Time N/A
Airport RJX8
Time Latitude Longitude Altitude Speed Heading
2026-05-05 01:47 28.63533 129.72140 9707 ft 177 kts 353°
2026-05-05 01:47 28.64713 129.72051 9947 ft 168 kts 346°
2026-05-05 01:47 28.65890 129.71741 9721 ft 184 kts 335°
2026-05-05 01:47 28.67020 129.71113 9882 ft 172 kts 321°
2026-05-05 01:48 28.67856 129.70248 10116 ft 158 kts 302°
2026-05-05 01:48 28.68778 129.69629 10488 ft 162 kts 351°
2026-05-05 01:48 28.69884 129.69768 10857 ft 157 kts 359°
2026-05-05 01:48 28.70970 129.69886 11070 ft 158 kts 353°
2026-05-05 01:49 28.72092 129.69894 11258 ft 162 kts 352°
2026-05-05 01:49 28.73233 129.69792 11411 ft 164 kts 341°
2026-05-05 01:49 28.74355 129.69444 11456 ft 174 kts 336°
2026-05-05 01:49 28.75551 129.69208 11703 ft 173 kts 346°
2026-05-05 01:50 28.76747 129.69112 11953 ft 170 kts 347°
2026-05-05 01:50 28.77907 129.69029 12140 ft 173 kts 346°
2026-05-05 01:50 28.79194 129.68799 11860 ft 196 kts 339°
2026-05-05 01:50 28.80466 129.68441 12284 ft 180 kts 342°
2026-05-05 01:51 28.81724 129.68275 12391 ft 185 kts 345°
2026-05-05 01:51 28.83002 129.68075 12472 ft 188 kts 344°
2026-05-05 01:51 28.84290 129.67916 12694 ft 184 kts 345°
2026-05-05 01:51 28.85559 129.67697 12781 ft 183 kts 343°
2026-05-05 01:52 28.86767 129.67499 12876 ft 162 kts 349°
2026-05-05 01:52 28.87872 129.67505 12892 ft 156 kts 355°
2026-05-05 01:52 28.88961 129.67672 12844 ft 160 kts
2026-05-05 01:52 28.89988 129.68065 13004 ft 155 kts 16°
2026-05-05 01:53 28.90987 129.68525 13067 ft 155 kts 17°
2026-05-05 01:53 28.91983 129.69011 13082 ft 159 kts 21°
2026-05-05 01:53 28.92974 129.69651 12936 ft 175 kts 28°
2026-05-05 01:53 28.93875 129.70472 13286 ft 155 kts 47°
2026-05-05 01:54 28.94547 129.71452 13280 ft 161 kts 45°
2026-05-05 01:54 28.95326 129.72210 13618 ft 128 kts 32°
2026-05-05 01:54 28.96091 129.72851 13316 ft 146 kts 29°
2026-05-05 01:54 28.96947 129.73619 12915 ft 168 kts 32°
2026-05-05 01:55 28.97867 129.74416 12829 ft 162 kts 31°
2026-05-05 01:55 28.98704 129.75138 10244 ft 201 kts 34°
2026-05-05 01:55 29.00008 129.76254 5931 ft 272 kts 40°
2026-05-05 01:55 29.01216 129.77362 2271 ft 236 kts 41°
2026-05-05 01:56 29.02450 129.78478 228 ft 223 kts 40°
2026-05-05 01:56 29.03556 129.79482 306 ft 183 kts 42°
2026-05-05 01:56 29.04471 129.80283 420 ft 149 kts 30°
2026-05-05 01:56 29.05413 129.80464 512 ft 133 kts
2026-05-05 01:57 29.06299 129.80379 466 ft 123 kts 359°
2026-05-05 01:57 29.07101 129.80275 475 ft 109 kts 358°
2026-05-05 01:57 29.07821 129.80139 451 ft 101 kts 354°
2026-05-05 01:57 29.08419 129.80006 582 ft 69 kts 355°
2026-05-05 01:58 29.08988 129.79874 374 ft 88 kts 353°
2026-05-05 01:58 29.09549 129.79675 373 ft 79 kts 344°
2026-05-05 01:58 29.10061 129.79451 300 ft 83 kts 346°
2026-05-05 01:58 29.10610 129.79238 228 ft 83 kts 348°
2026-05-05 01:59 29.11154 129.79062 152 ft 80 kts 352°
2026-05-05 01:59 29.11687 129.78903 84 ft 79 kts 350°
2026-05-05 01:59 29.12190 129.78664 42 ft 75 kts 345°
2026-05-05 01:59 29.12626 129.78372 15 ft 71 kts 325°
2026-05-05 02:00 29.12768 129.78195 4 ft 0 kts 301°